Following are Alpine Race Results and Penalty Report


Ski Race Results generated by:
     USSA Race Software, Alpine/Snowboard/Cross Country Version 6.20
     Software written by Split Second, Inc.   www.SplitSecond.com


~~~~~~~~~~~~~~~~~~~~~~~~~~~~~~~~~~~~~~~~~~~~~~~~~~~~~~~~~~~~~~~~~~~~~~~~~~~~~~~~
                       U.S. SKI AND SNOWBOARD ASSOCIATION                       

                                   ERIC HAYS                                    

                            USSA RACE CODE No. U0936                            
Park City Ski Team                                             DECEMBER 17, 2010
Park City Mountain Resort                                          Intermountain
--------------------------------------------------------------------------------

                          S L A L O M     L A D I E S                           
                                OFFICIAL RESULTS                                

JURY                                          TECHNICAL DATA

TD               R. KEITH          (USA)      COURSE                  PAYDAY RUN
REFEREE          K. CHAFFEE        (USA)      START                       2268 M
CHIEF OF RACE    J. HUNT           (USA)      FINISH                      2145 M
                                              VERTICAL DROP                123 M
                                              
                                              HOMOLOG.Nr.             U426/11/09
                                                                                

                 1st RUN                          2nd RUN
COURSE SETTER    B. TURE           (USA)          A. FLYNN          (USA)
FORERUNNERS  -A- D. ALEXANDRESCU   (USA)      -A- J. ELLIOT         (USA)
             -B- T. ROMONO         (USA)      -B- D. ALEXANDRESCU   (USA)
             -C- S. MCNAMARA       (USA)      -C- M. WALLMAN        (USA)
             -D-                              -D- 
             -E-                              -E- 

GATES/DIR CHANGES   45/(43)                          45/(44)
START TIME       12.00                            16.00
WEATHER: OVERCAST             SNOW: PACKED POWDER         TEMP. S: -8 C F: -7 C
-----------------------    UNOFFICIAL PENALTY   28.05    -----------------------
                                                                          F=610
 PL BIB  USSA    COMPETITOR---------------------   TIME    TIME    TOTAL    RACE
     Nr  Nr      SURNAME+NAME             NAT/YR  1stRUN  2ndRUN    TIME  POINTS

  1   5 X6162697 Huckova, Eva              UU/86   39.59   43.05 1:22.64    0.00
  2   3 I5301684 Abbe, Claire            PCST/86   39.45   43.26 1:22.71    0.52
  3   2 E5308085 Roberts, Christine C    JHSC/87   39.22   43.70 1:22.92    2.07
  4   9 I5684584 Staples, Sydney         PCST/93   40.12   43.26 1:23.38    5.46
  5  15 I5133541 Kelley, Jessica C       PCST/82   40.59   43.68 1:24.27   12.03
  6  12 I5731773 French, Bridget         PCST/92   41.40   43.33 1:24.73   15.43
  7   6 I5779079 Troxell, Courtney         SB/93   40.92   43.89 1:24.81   16.02
  8   8 I5703657 Bernhard, Katie         PCST/93   41.48   44.00 1:25.48   20.96
  9   7 I5970439 Frankenburg, Sophia     PCST/94   41.46   44.55 1:26.01   24.88
 10  17 I5745369 Abramovich, Abbie         BB/94   41.56   45.21 1:26.77   30.49
 11  11 I5970447 Greene, Katy            PCST/95   42.03   44.86 1:26.89   31.37
 12  21 I5619143 Kent, K C                 RM/93   41.81   45.44 1:27.25   34.03
 13  28 I6028179 Andreini, Isabella      PCST/95   42.29   45.04 1:27.33   34.62
 14   4 I5785084 Davies, Nicolette       JHSC/92   41.67   45.69 1:27.36   34.84
 15  22 I5911235 Johnson, Breezy N         RM/96   41.85   45.93 1:27.78   37.94


17-12-10 / Park City Mountain ResortLIST: NLW511               U0936     SF8 / 1
--------------------------------------------------------------------------------
DATA PROCESSING BY USSA SOFTWARE                            TAG-Heuer 705 TIMING
~~~~~~~~~~~~~~~~~~~~~~~~~~~~~~~~~~~ NEW PAGE ~~~~~~~~~~~~~~~~~~~~~~~~~~~~~~~~~~~
                       U.S. SKI AND SNOWBOARD ASSOCIATION                       

                                   ERIC HAYS                                    

                            USSA RACE CODE No. U0936                            
Park City Ski Team                                             DECEMBER 17, 2010
Park City Mountain Resort                                          Intermountain
--------------------------------------------------------------------------------

 PL BIB  USSA    COMPETITOR---------------------   TIME    TIME    TOTAL    RACE
     Nr  Nr      SURNAME+NAME             NAT/YR  1stRUN  2ndRUN    TIME  POINTS

 16  13 I5811237 Zavala, Linnea            RM/93   41.77   46.16 1:27.93   39.05
 17  23 I5986906 Grassell, Megan         JHSC/95   43.13   45.62 1:28.75   45.10
 18  25 I5885611 Smith, Remy             PCST/95   43.15   45.65 1:28.80   45.47
 19  92 I5981543 Leavens, Molly          PCST/97   43.15   45.77 1:28.92   46.36
 20  16 I5910724 Morgan, Kiley           PCST/94   42.92   46.09 1:29.01   47.02
 21  20 I5896154 Warner, Wesley            RM/92   42.69   46.51 1:29.20   48.42
 22  39 I5910666 Gowen, Morgan             SB/94   43.42   45.87 1:29.29   49.09
 23  10 I6028138 Hunsaker, Hannah        PCST/95   42.77   46.62 1:29.39   49.82
 24  19 I5933973 Babcock, Michaela         SB/93   42.40   47.17 1:29.57   51.15
 25  93 I5964515 Wright, Isabella        JHSC/97   43.46   46.36 1:29.82   53.00
 26  35 I6061568 Polukoff, Natalya E     PCST/95   43.64   46.44 1:30.08   54.92
 27  26 I5908710 Jobe, Anna                RM/95   43.96   46.16 1:30.12   55.21
 28  14 I5744990 Brown, Gracie            SST/92   43.07   47.68 1:30.75   59.86
 29  29 I5599592 Silverman, Reid           RM/94   44.05   47.43 1:31.48   65.25
 30  31 I5981709 Leavens, Emily          PCST/95   44.79   48.10 1:32.89   75.66
 31  42 I5926688 Wilson, Cassidy         PCST/95   45.21   47.85 1:33.06   76.91
 32  45 I5877097 Shettig, Hayden         PCST/96   45.55   47.97 1:33.52   80.31
 33  33 I5858865 Hitchcock, Katie        PCST/95   45.90   47.76 1:33.66   81.34
 34  49 I5917075 Troyer, Camille           BB/95   45.69   47.98 1:33.67   81.42
 35  46 I6081863 Dewolfe, Sofia          SVST/95   45.45   48.68 1:34.13   84.81
 36  30 I5847140 McGlashon, Morgan       JHSC/94   45.47   48.74 1:34.21   85.40
 37  75 I6076863 Cutler, Haley           SVST/97   46.26   48.77 1:35.03   91.46
 38  43 I6060198 Fitzgerald, Jordan E    SVST/96   45.61   49.75 1:35.36   93.89
 39  32 I6022735 Burton, Ellie           PCST/96   46.62   49.20 1:35.82   97.29
 40  48 I5878087 Petersen, Lauren          SB/96   46.24   49.92 1:36.16   99.80
 41  34 I5851548 Morrison, Fiona         PCST/94   45.96   50.66 1:36.62  103.19
 42  38 I6133888 D'Elia, Gabriela        PCST/94   46.28   50.37 1:36.65  103.41
 43  41 I6035398 Totten, Mary              BB/95   47.25   49.59 1:36.84  104.82
 44  73 I6125439 Benzon, Kaya S            SB/97   46.62   50.25 1:36.87  105.04
 45  40 I6070395 Minniear, Cheech M      PCST/95   46.09   50.95 1:37.04  106.29
 46  77 I6085518 Merritt, Mackenzie E    XLCR/96   46.38   51.01 1:37.39  108.88
 47  51 I6044622 Munday, Morgan            RM/95   47.45   50.13 1:37.58  110.28
 48  52 I6055396 Huffaker, Kelci         OVST/95   47.27   50.76 1:38.03  113.60
 49  83 I6060446 Allison, Josie          SVST/97   47.00   51.10 1:38.10  114.12
 50  79 I6104939 Hochhauser, Sophie        RM/94   47.53   50.92 1:38.45  116.70
 51  53 I5998315 Swenson, Gretchen       PCST/96   47.18   51.41 1:38.59  117.73
 52  36 I5905088 Gibbs, Sarah              SB/95   47.27   51.37 1:38.64  118.10
 53  78 I6017560 Torres, Isabel          OVST/97   48.18   50.78 1:38.96  120.46
 54  56 I6068134 Polenz, Alexis          PCST/96   48.60   51.09 1:39.69  125.85
 55  87 I6061766 Busby, Samantha         SVST/97   48.76   51.19 1:39.95  127.77
 56  71 I6059992 Murphy, Megan           SVST/97   49.17   50.85 1:40.02  128.29
 57  58 I6054894 Lam, Adria                SB/95   49.39   51.45 1:40.84  134.34

17-12-10 / Park City Mountain ResortLIST: NLW511               U0936     SF8 / 2
--------------------------------------------------------------------------------
DATA PROCESSING BY USSA SOFTWARE                            TAG-Heuer 705 TIMING
~~~~~~~~~~~~~~~~~~~~~~~~~~~~~~~~~~~ NEW PAGE ~~~~~~~~~~~~~~~~~~~~~~~~~~~~~~~~~~~
                       U.S. SKI AND SNOWBOARD ASSOCIATION                       

                                   ERIC HAYS                                    

                            USSA RACE CODE No. U0936                            
Park City Ski Team                                             DECEMBER 17, 2010
Park City Mountain Resort                                          Intermountain
--------------------------------------------------------------------------------

 PL BIB  USSA    COMPETITOR---------------------   TIME    TIME    TOTAL    RACE
     Nr  Nr      SURNAME+NAME             NAT/YR  1stRUN  2ndRUN    TIME  POINTS

 58  24 I5814116 Enders, Destrey           SB/94   43.08   57.84 1:40.92  134.93
 59  37 I5935804 Hendrickson, Hannah     PCST/94   48.92   52.30 1:41.22  137.15
 60  86 I6271198 Uzieblo, Aleksandra A   PCST/97   49.62   51.74 1:41.36  138.18
 61  47 I5997168 Tauber, Kristina        PCST/96   49.34   52.86 1:42.20  144.38
 62  90 I6060008 Milgard, Madison        SVST/97   49.88   52.86 1:42.74  148.37
 63  61 I5895503 Davidson, Mena          BMST/94   49.28   53.50 1:42.78  148.66
 64  81 I6194120 Bois, Neah                SB/97   48.63   54.26 1:42.89  149.47
 65  59 I5820899 Mustard, Jamie            BB/96   50.38   53.03 1:43.41  153.31
 66  18 I5609540 Guetschow, Taylor        SST/90   42.74 1:00.88 1:43.62  154.86
 67  57 I6087274 Gilliam, Taylor           BB/94   50.71   52.97 1:43.68  155.30
 68  54 I6097638 Miller, Kathleen        BMST/96   50.92   53.52 1:44.44  160.91
 69  80 I6007819 Meeks, Perri            JHSC/97   49.84   55.05 1:44.89  164.24
 70  55 I6081947 Flynt, Reta             SVST/93   51.16   54.53 1:45.69  170.14
 71  62 I6257022 Terkovich, Brooke       JHSC/96   51.03   54.99 1:46.02  172.58
 72  91 I6061543 Turok, Sophie             RM/97   51.83   56.15 1:47.98  187.05
 73  50 I5850300 Zeiler, Petra           SVST/94   57.12   50.94 1:48.06  187.64
 74  67 I6271280 Tomlinson, Madeline R     SB/94   53.20   56.06 1:49.26  196.49
 75  68 I6187918 Hoyt, Amy               PCST/96   52.97   57.05 1:50.02  202.10
 76  65 I6214414 Francois, Chloe E       SVST/96   53.17   58.33 1:51.50  213.03
 77  74 I6060263 Wentzell, Olivia        SVST/97   54.14   58.58 1:52.72  222.03
 78  76 I5942792 Harris, Sydney          MSRT/97   55.48   59.58 1:55.06  239.31
 79  82 I6060412 Black, Alexandra K      SVST/97   55.50 1:00.25 1:55.75  244.40
 80  84 I6164214 Romano, Taylor          PCST/97   55.98   59.88 1:55.86  245.21
 81  72 I6062236 Unser, Loni             SVST/97   55.76 1:00.22 1:55.98  246.10
 82  64 I5881735 Warner, Beth            MSRT/96   55.82 1:00.82 1:56.64  250.97
 83  63 I6127559 Bennett, Amanda           SB/94   57.27 1:01.11 1:58.38  263.81
 84  70 I6268880 Hunt, Sarah               SB/96   58.24 1:01.72 1:59.96  275.47
 85  69 I6191530 Harris, Lyndsay         OVST/96   57.35 1:04.15 2:01.50  286.84
 86  88 X6065510 Robinson, Jana          OVST/97   57.75 1:04.14 2:01.89  289.72
 87  85 I6239603 Betebenner, Molly         SB/97 1:00.35 1:07.35 2:07.70  332.61
 88  66 I6043434 Griffiths, Sierra       PCST/96 1:03.47 1:11.06 2:14.53  383.02

DID NOT START 1st RUN
     44 I6028161 Jakob, Rachel           PCST/95
     27 I5910690 Karz, Jessica           PCST/93

DID NOT FINISH 1st RUN

DISQUALIFIED 1st RUN




17-12-10 / Park City Mountain ResortLIST: NLW511               U0936     SF8 / 3
--------------------------------------------------------------------------------
DATA PROCESSING BY USSA SOFTWARE                            TAG-Heuer 705 TIMING
~~~~~~~~~~~~~~~~~~~~~~~~~~~~~~~~~~~ NEW PAGE ~~~~~~~~~~~~~~~~~~~~~~~~~~~~~~~~~~~
                       U.S. SKI AND SNOWBOARD ASSOCIATION                       

                                   ERIC HAYS                                    

                            USSA RACE CODE No. U0936                            
Park City Ski Team                                             DECEMBER 17, 2010
Park City Mountain Resort                                          Intermountain
--------------------------------------------------------------------------------

 PL BIB  USSA    COMPETITOR---------------------   TIME    TIME    TOTAL    RACE
     Nr  Nr      SURNAME+NAME             NAT/YR  1stRUN  2ndRUN    TIME  POINTS

DID NOT START 2nd RUN

DID NOT FINISH 2nd RUN
     89 I6084438 Dingman, Megan          PCST/97
     60 I6033369 Huelse, Kaitlin           BB/95
      1 I5707138 Dupratt, Jaime            UU/90

DISQUALIFIED 2nd RUN
     94 I6045801 Oplinger, Sydney          SB/97   GATE   23

                                                TECHNICAL DELEGATE

                                                R. KEITH          (USA)






























17-12-10 / Park City Mountain ResortLIST: NLW511               U0936     SF8 / 4
--------------------------------------------------------------------------------
DATA PROCESSING BY USSA SOFTWARE                            TAG-Heuer 705 TIMING
~~~~~~~~~~~~~~~~~~~~~~~~~~~~~~~~~~~ NEW PAGE ~~~~~~~~~~~~~~~~~~~~~~~~~~~~~~~~~~~
                       U.S. SKI AND SNOWBOARD ASSOCIATION                       

                                   ERIC HAYS                                    

                            USSA RACE CODE No. U0936                            
Park City Ski Team                                             DECEMBER 17, 2010
Park City Mountain Resort                                          Intermountain
--------------------------------------------------------------------------------
                          S L A L O M     L A D I E S                           
                            USSA PENALTY CALCULATION                            

 THE BEST 10 AT FINISH:

  RACE    BIB    CODE   COMPETITOR                     USSA   BEST 5      RACE
 RESULT   NR.           SURNAME+NAME                 POINTS             POINTS

     1      5 X6162697  Huckova, Eva                  20.09    20.09      0.00
     2      3 I5301684  Abbe, Claire                  35.80    35.80      0.52
     3      2 E5308085  Roberts, Christine C          27.88    27.88      2.07
     4      9 I5684584  Staples, Sydney               63.22
     5     15 I5133541  Kelley, Jessica C             29.49    29.49     12.03
     6     12 I5731773  French, Bridget               65.13
     7      6 I5779079  Troxell, Courtney             65.69
     8      8 I5703657  Bernhard, Katie               55.82    55.82     20.96
     9      7 I5970439  Frankenburg, Sophia           63.80
    10     17 I5745369  Abramovich, Abbie             76.75

 THE BEST 5 AT START:

     1      5 X6162697  Huckova, Eva                  20.09
     3      2 E5308085  Roberts, Christine C          27.88
     5     15 I5133541  Kelley, Jessica C             29.49
  DNF2      1 I5707138  Dupratt, Jaime                33.72
     2      3 I5301684  Abbe, Claire                  35.80

TOTALS                                              --------
(B) USSA POINTS OF BEST 5 AT START                   146.98  --------
(A) USSA POINTS OF BEST 5 TO FINISH IN TOP 10                 169.08   --------
(C)  RACE POINTS OF CORRESPONDING COMPETITORS                            35.58

CALCULATED PENALTY  169.08 + 146.98 -  35.58 : 10  =                     28.048
                      (A)      (B)      (C)

ROUNDED                                                                  28.05

PENALTY APPLIED:                                                         28.05

                                     _______________________
                                     R. KEITH          (USA)

17-12-10 / Park City Mountain ResortLIST: NLW511               U0936     SF9 / 1
--------------------------------------------------------------------------------
DATA PROCESSING BY USSA SOFTWARE                            TAG-Heuer 705 TIMING
~~~~~~~~~~~~~~~~~~~~~~~~~~~~~~~~~~~ NEW PAGE ~~~~~~~~~~~~~~~~~~~~~~~~~~~~~~~~~~~